CST373X SBFZ-SBRF
Flight info
| Callsign | CST373X |
|---|---|
| Flight time | 0h 51m |
| Altitude | 41000 |
| Route | UTMAR UZ70 UGTUN |
| Aircraft | B77L/H-SDE1E2E3FGHIJ2J3J4J5M1RWXY/LB1D1 |
Departure
| Time | 2026-05-04 16:28 |
|---|---|
| Airport | Pinto Martins International Airport (SBFZ) |
Arrival
| Time | 2026-05-04 17:19 |
|---|---|
| Airport | Recife/Guararapes - Gilberto Freyre International Airport (SBRF) |
| Time | Latitude | Longitude | Altitude | Speed | Heading |
|---|---|---|---|---|---|
| 2026-05-04 16:18 | -3.77812 | -38.53476 | 90 ft | 0 kts | 195° |
| 2026-05-04 16:22 | -3.77778 | -38.53463 | 89 ft | 4 kts | 210° |
| 2026-05-04 16:23 | -3.77749 | -38.53422 | 88 ft | 0 kts | 285° |
| 2026-05-04 16:25 | -3.77747 | -38.53429 | 91 ft | 3 kts | 284° |
| 2026-05-04 16:26 | -3.77626 | -38.53893 | 90 ft | 25 kts | 285° |
| 2026-05-04 16:26 | -3.77477 | -38.54459 | 91 ft | 31 kts | 287° |
| 2026-05-04 16:27 | -3.77325 | -38.54396 | 93 ft | 21 kts | 105° |
| 2026-05-04 16:28 | -3.78082 | -38.52265 | 1215 ft | 175 kts | 130° |
| 2026-05-04 16:28 | -3.81866 | -38.51293 | 3881 ft | 235 kts | 168° |
| 2026-05-04 16:29 | -3.88973 | -38.49603 | 8857 ft | 279 kts | 162° |
| 2026-05-04 16:30 | -3.94848 | -38.47918 | 12766 ft | 301 kts | 161° |
| 2026-05-04 16:31 | -3.98949 | -38.46696 | 15424 ft | 315 kts | 160° |
| 2026-05-04 16:31 | -4.05849 | -38.44599 | 18305 ft | 373 kts | 161° |
| 2026-05-04 16:32 | -4.13501 | -38.42277 | 21615 ft | 391 kts | 161° |
| 2026-05-04 16:33 | -4.18799 | -38.40663 | 23690 ft | 406 kts | 161° |
| 2026-05-04 16:33 | -4.24294 | -38.38988 | 25445 ft | 417 kts | 162° |
| 2026-05-04 16:34 | -4.29772 | -38.37318 | 28177 ft | 398 kts | 163° |
| 2026-05-04 16:34 | -4.32395 | -38.36517 | 29758 ft | 392 kts | 164° |
| 2026-05-04 16:35 | -4.40440 | -38.34065 | 31963 ft | 418 kts | 164° |
| 2026-05-04 16:35 | -4.48921 | -38.31475 | 34199 ft | 433 kts | 164° |
| 2026-05-04 16:36 | -4.51748 | -38.30383 | 34819 ft | 439 kts | 156° |
| 2026-05-04 16:36 | -4.56988 | -38.27145 | 36175 ft | 447 kts | 143° |
| 2026-05-04 16:37 | -4.61837 | -38.23157 | 37322 ft | 455 kts | 142° |
| 2026-05-04 16:37 | -4.64280 | -38.21106 | 37860 ft | 460 kts | 142° |
| 2026-05-04 16:37 | -4.69234 | -38.16969 | 38861 ft | 466 kts | 143° |
| 2026-05-04 16:38 | -4.74281 | -38.12798 | 39686 ft | 472 kts | 143° |
| 2026-05-04 16:39 | -4.81946 | -38.06496 | 40745 ft | 481 kts | 143° |
| 2026-05-04 16:39 | -4.87197 | -38.02181 | 40937 ft | 494 kts | 143° |
| 2026-05-04 16:40 | -4.97991 | -37.93299 | 40941 ft | 504 kts | 143° |
| 2026-05-04 16:41 | -5.11350 | -37.82297 | 40941 ft | 494 kts | 143° |
| 2026-05-04 16:43 | -5.24618 | -37.71370 | 40944 ft | 495 kts | 143° |
| 2026-05-04 16:43 | -5.32617 | -37.64779 | 40942 ft | 496 kts | 143° |
| 2026-05-04 16:45 | -5.48651 | -37.51559 | 40938 ft | 498 kts | 143° |
| 2026-05-04 16:46 | -5.62002 | -37.40543 | 40944 ft | 498 kts | 143° |
| 2026-05-04 16:47 | -5.72723 | -37.31691 | 40941 ft | 498 kts | 143° |
| 2026-05-04 16:48 | -5.83407 | -37.22873 | 40941 ft | 498 kts | 143° |
| 2026-05-04 16:49 | -5.94135 | -37.14014 | 40941 ft | 499 kts | 143° |
| 2026-05-04 16:50 | -6.04851 | -37.05158 | 40942 ft | 498 kts | 143° |
| 2026-05-04 16:51 | -6.12881 | -36.98519 | 40946 ft | 499 kts | 143° |
| 2026-05-04 16:52 | -6.23605 | -36.89648 | 40951 ft | 499 kts | 143° |
| 2026-05-04 16:53 | -6.31655 | -36.82986 | 40951 ft | 500 kts | 143° |
| 2026-05-04 16:54 | -6.42360 | -36.74120 | 40941 ft | 500 kts | 143° |
| 2026-05-04 16:55 | -6.58425 | -36.60753 | 40959 ft | 500 kts | 143° |
| 2026-05-04 16:56 | -6.69724 | -36.47406 | 40978 ft | 506 kts | 127° |
| 2026-05-04 16:57 | -6.75734 | -36.38708 | 40978 ft | 506 kts | 127° |
| 2026-05-04 16:58 | -6.83857 | -36.27117 | 40974 ft | 507 kts | 127° |
| 2026-05-04 16:59 | -6.87932 | -36.21310 | 40569 ft | 512 kts | 127° |
| 2026-05-04 17:00 | -6.96177 | -36.09548 | 36458 ft | 517 kts | 127° |
| 2026-05-04 17:00 | -7.02401 | -36.00660 | 32915 ft | 519 kts | 127° |
| 2026-05-04 17:01 | -7.06510 | -35.94785 | 31172 ft | 506 kts | 127° |
| 2026-05-04 17:01 | -7.10516 | -35.89058 | 29408 ft | 494 kts | 127° |
| 2026-05-04 17:02 | -7.14430 | -35.83466 | 27662 ft | 482 kts | 126° |
| 2026-05-04 17:02 | -7.18239 | -35.78024 | 26025 ft | 468 kts | 125° |
| 2026-05-04 17:03 | -7.20103 | -35.75361 | 25211 ft | 462 kts | 124° |
| 2026-05-04 17:03 | -7.21942 | -35.72732 | 24410 ft | 456 kts | 124° |
| 2026-05-04 17:03 | -7.25529 | -35.67597 | 22725 ft | 445 kts | 123° |
| 2026-05-04 17:04 | -7.29033 | -35.62578 | 21176 ft | 430 kts | 124° |
| 2026-05-04 17:04 | -7.32427 | -35.57718 | 19737 ft | 418 kts | 124° |
| 2026-05-04 17:05 | -7.35740 | -35.52970 | 18314 ft | 410 kts | 124° |
| 2026-05-04 17:05 | -7.38997 | -35.48305 | 16798 ft | 402 kts | 124° |
| 2026-05-04 17:06 | -7.42160 | -35.43773 | 15448 ft | 393 kts | 124° |
| 2026-05-04 17:06 | -7.43727 | -35.41528 | 14775 ft | 390 kts | 122° |
| 2026-05-04 17:07 | -7.46836 | -35.37070 | 13380 ft | 386 kts | 122° |
| 2026-05-04 17:07 | -7.47877 | -35.35576 | 12895 ft | 384 kts | 123° |
| 2026-05-04 17:07 | -7.49897 | -35.32676 | 12004 ft | 379 kts | 123° |
| 2026-05-04 17:07 | -7.51406 | -35.30511 | 11351 ft | 375 kts | 124° |
| 2026-05-04 17:08 | -7.52899 | -35.28369 | 10716 ft | 372 kts | 123° |
| 2026-05-04 17:08 | -7.55770 | -35.24254 | 10308 ft | 344 kts | 123° |
| 2026-05-04 17:08 | -7.57115 | -35.22322 | 10182 ft | 330 kts | 124° |
| 2026-05-04 17:09 | -7.58407 | -35.20467 | 10052 ft | 317 kts | 123° |
| 2026-05-04 17:09 | -7.59656 | -35.18674 | 9817 ft | 309 kts | 124° |
| 2026-05-04 17:09 | -7.60869 | -35.16930 | 9616 ft | 299 kts | 124° |
| 2026-05-04 17:10 | -7.63171 | -35.13621 | 8920 ft | 284 kts | 124° |
| 2026-05-04 17:10 | -7.66454 | -35.08904 | 7786 ft | 267 kts | 126° |
| 2026-05-04 17:11 | -7.67566 | -35.07455 | 7443 ft | 257 kts | 138° |
| 2026-05-04 17:11 | -7.69088 | -35.06530 | 7153 ft | 258 kts | 159° |
| 2026-05-04 17:11 | -7.72536 | -35.05424 | 6536 ft | 258 kts | 163° |
| 2026-05-04 17:12 | -7.74238 | -35.04927 | 6228 ft | 252 kts | 165° |
| 2026-05-04 17:12 | -7.77555 | -35.03929 | 5632 ft | 248 kts | 162° |
| 2026-05-04 17:13 | -7.82518 | -35.02300 | 4743 ft | 253 kts | 162° |
| 2026-05-04 17:14 | -7.87523 | -35.00642 | 3845 ft | 251 kts | 162° |
| 2026-05-04 17:14 | -7.89173 | -35.00096 | 3558 ft | 249 kts | 162° |
| 2026-05-04 17:14 | -7.91878 | -34.99199 | 3371 ft | 250 kts | 161° |
| 2026-05-04 17:15 | -7.93546 | -34.98642 | 3297 ft | 256 kts | 162° |
| 2026-05-04 17:15 | -7.97395 | -34.97374 | 2798 ft | 239 kts | 161° |
| 2026-05-04 17:16 | -7.99963 | -34.96523 | 2347 ft | 225 kts | 161° |
| 2026-05-04 17:16 | -8.04165 | -34.95129 | 1474 ft | 192 kts | 161° |
| 2026-05-04 17:17 | -8.05362 | -34.94733 | 1256 ft | 169 kts | 161° |
| 2026-05-04 17:17 | -8.08197 | -34.93793 | 719 ft | 130 kts | 160° |
| 2026-05-04 17:18 | -8.09043 | -34.93503 | 575 ft | 125 kts | 160° |
| 2026-05-04 17:18 | -8.10662 | -34.92966 | 260 ft | 125 kts | 163° |
| 2026-05-04 17:19 | -8.12338 | -34.92414 | 47 ft | 112 kts | 161° |
| 2026-05-04 17:19 | -8.13262 | -34.92049 | 48 ft | 25 kts | 130° |
| 2026-05-04 17:20 | -8.13313 | -34.91929 | 49 ft | 8 kts | 35° |
| 2026-05-04 17:20 | -8.13094 | -34.92015 | 48 ft | 27 kts | 341° |
| 2026-05-04 17:20 | -8.13002 | -34.92045 | 51 ft | 8 kts | 346° |
| 2026-05-04 17:21 | -8.12867 | -34.92027 | 50 ft | 14 kts | 31° |
| 2026-05-04 17:21 | -8.12764 | -34.91926 | 51 ft | 5 kts | 71° |
| 2026-05-04 17:22 | -8.12777 | -34.91892 | 49 ft | 7 kts | 122° |
| 2026-05-04 17:22 | -8.12786 | -34.91879 | 50 ft | 3 kts | 123° |
| 2026-05-04 17:23 | -8.12787 | -34.91876 | 50 ft | 0 kts | 123° |